sensor_id;sensor_type;location;lat;lon;timestamp;P1;durP1;ratioP1;P2;durP2;ratioP2
79122;SDS011;68526;44.600;26.032;2023-12-14T00:00:08;45.67;;;30.15;;
79122;SDS011;68526;44.600;26.032;2023-12-14T00:00:24;47.90;;;30.73;;
79122;SDS011;68526;44.600;26.032;2023-12-14T00:00:40;45.22;;;29.45;;
79122;SDS011;68526;44.600;26.032;2023-12-14T00:00:56;44.47;;;28.83;;
79122;SDS011;68526;44.600;26.032;2023-12-14T00:01:12;46.47;;;29.63;;
79122;SDS011;68526;44.600;26.032;2023-12-14T00:01:28;44.92;;;29.65;;
79122;SDS011;68526;44.600;26.032;2023-12-14T00:01:44;46.42;;;30.35;;
79122;SDS011;68526;44.600;26.032;2023-12-14T00:02:03;48.97;;;30.35;;
79122;SDS011;68526;44.600;26.032;2023-12-14T00:02:19;46.67;;;30.42;;
79122;SDS011;68526;44.600;26.032;2023-12-14T00:02:35;43.70;;;30.40;;
79122;SDS011;68526;44.600;26.032;2023-12-14T00:02:51;44.15;;;29.23;;
79122;SDS011;68526;44.600;26.032;2023-12-14T00:03:07;46.40;;;28.98;;
79122;SDS011;68526;44.600;26.032;2023-12-14T00:03:23;45.28;;;28.20;;
79122;SDS011;68526;44.600;26.032;2023-12-14T00:03:39;45.15;;;28.13;;
79122;SDS011;68526;44.600;26.032;2023-12-14T00:03:56;43.75;;;28.25;;
79122;SDS011;68526;44.600;26.032;2023-12-14T00:04:12;43.30;;;28.88;;
79122;SDS011;68526;44.600;26.032;2023-12-14T00:04:29;45.75;;;30.60;;
79122;SDS011;68526;44.600;26.032;2023-12-14T00:04:45;46.83;;;30.70;;
79122;SDS011;68526;44.600;26.032;2023-12-14T00:05:00;46.20;;;29.88;;
79122;SDS011;68526;44.600;26.032;2023-12-14T00:05:16;44.63;;;29.53;;
79122;SDS011;68526;44.600;26.032;2023-12-14T00:05:32;43.80;;;29.52;;
79122;SDS011;68526;44.600;26.032;2023-12-14T00:05:48;45.72;;;29.92;;
79122;SDS011;68526;44.600;26.032;2023-12-14T00:06:04;47.42;;;30.02;;
79122;SDS011;68526;44.600;26.032;2023-12-14T00:06:20;45.15;;;29.33;;
79122;SDS011;68526;44.600;26.032;2023-12-14T00:06:37;45.63;;;30.05;;
79122;SDS011;68526;44.600;26.032;2023-12-14T00:06:53;44.90;;;29.92;;
79122;SDS011;68526;44.600;26.032;2023-12-14T00:07:09;44.50;;;29.10;;
79122;SDS011;68526;44.600;26.032;2023-12-14T00:07:26;43.45;;;28.10;;
79122;SDS011;68526;44.600;26.032;2023-12-14T00:07:41;42.25;;;27.73;;
79122;SDS011;68526;44.600;26.032;2023-12-14T00:07:57;42.22;;;27.40;;
79122;SDS011;68526;44.600;26.032;2023-12-14T00:08:13;42.00;;;27.63;;
79122;SDS011;68526;44.600;26.032;2023-12-14T00:08:30;43.00;;;28.98;;
79122;SDS011;68526;44.600;26.032;2023-12-14T00:08:46;43.90;;;29.07;;
79122;SDS011;68526;44.600;26.032;2023-12-14T00:09:02;44.20;;;28.88;;
79122;SDS011;68526;44.600;26.032;2023-12-14T00:09:18;43.63;;;29.10;;
79122;SDS011;68526;44.600;26.032;2023-12-14T00:09:34;44.25;;;28.73;;
79122;SDS011;68526;44.600;26.032;2023-12-14T00:09:50;44.75;;;29.35;;
79122;SDS011;68526;44.600;26.032;2023-12-14T00:10:06;43.00;;;29.55;;
79122;SDS011;68526;44.600;26.032;2023-12-14T00:10:24;45.25;;;29.45;;
79122;SDS011;68526;44.600;26.032;2023-12-14T00:10:40;45.17;;;29.52;;
79122;SDS011;68526;44.600;26.032;2023-12-14T00:10:55;42.92;;;29.05;;
79122;SDS011;68526;44.600;26.032;2023-12-14T00:11:11;42.47;;;29.00;;
79122;SDS011;68526;44.600;26.032;2023-12-14T00:11:27;42.35;;;27.95;;
79122;SDS011;68526;44.600;26.032;2023-12-14T00:11:44;43.08;;;28.05;;
79122;SDS011;68526;44.600;26.032;2023-12-14T00:12:00;42.80;;;28.48;;
79122;SDS011;68526;44.600;26.032;2023-12-14T00:12:16;43.72;;;28.58;;
79122;SDS011;68526;44.600;26.032;2023-12-14T00:12:31;45.35;;;29.40;;
79122;SDS011;68526;44.600;26.032;2023-12-14T00:12:48;43.92;;;29.90;;
79122;SDS011;68526;44.600;26.032;2023-12-14T00:13:07;42.53;;;28.92;;
79122;SDS011;68526;44.600;26.032;2023-12-14T00:13:23;44.00;;;28.23;;
79122;SDS011;68526;44.600;26.032;2023-12-14T00:13:39;45.55;;;28.98;;
79122;SDS011;68526;44.600;26.032;2023-12-14T00:13:55;44.90;;;29.63;;
79122;SDS011;68526;44.600;26.032;2023-12-14T00:14:11;45.17;;;29.40;;
79122;SDS011;68526;44.600;26.032;2023-12-14T00:14:28;45.13;;;29.30;;
79122;SDS011;68526;44.600;26.032;2023-12-14T00:14:44;45.22;;;29.77;;
79122;SDS011;68526;44.600;26.032;2023-12-14T00:15:00;45.03;;;29.83;;
79122;SDS011;68526;44.600;26.032;2023-12-14T00:15:16;44.57;;;29.33;;
79122;SDS011;68526;44.600;26.032;2023-12-14T00:15:32;44.75;;;28.85;;
79122;SDS011;68526;44.600;26.032;2023-12-14T00:15:47;45.70;;;29.08;;
79122;SDS011;68526;44.600;26.032;2023-12-14T00:16:05;45.00;;;29.48;;
79122;SDS011;68526;44.600;26.032;2023-12-14T00:16:22;43.78;;;28.23;;
79122;SDS011;68526;44.600;26.032;2023-12-14T00:16:39;41.40;;;27.60;;
79122;SDS011;68526;44.600;26.032;2023-12-14T00:16:55;43.42;;;28.45;;
79122;SDS011;68526;44.600;26.032;2023-12-14T00:17:14;42.47;;;28.58;;
79122;SDS011;68526;44.600;26.032;2023-12-14T00:17:30;42.33;;;28.38;;
79122;SDS011;68526;44.600;26.032;2023-12-14T00:17:46;43.90;;;29.02;;
79122;SDS011;68526;44.600;26.032;2023-12-14T00:18:02;43.78;;;28.83;;
79122;SDS011;68526;44.600;26.032;2023-12-14T00:18:19;46.55;;;29.85;;
79122;SDS011;68526;44.600;26.032;2023-12-14T00:18:35;45.78;;;29.67;;
79122;SDS011;68526;44.600;26.032;2023-12-14T00:18:51;44.83;;;29.30;;
79122;SDS011;68526;44.600;26.032;2023-12-14T00:19:07;44.28;;;29.33;;
79122;SDS011;68526;44.600;26.032;2023-12-14T00:19:23;42.80;;;29.02;;
79122;SDS011;68526;44.600;26.032;2023-12-14T00:19:39;40.83;;;28.13;;
79122;SDS011;68526;44.600;26.032;2023-12-14T00:19:55;44.55;;;28.70;;
79122;SDS011;68526;44.600;26.032;2023-12-14T00:20:11;47.70;;;30.02;;
79122;SDS011;68526;44.600;26.032;2023-12-14T00:20:29;43.95;;;29.08;;
79122;SDS011;68526;44.600;26.032;2023-12-14T00:20:45;42.00;;;28.47;;
79122;SDS011;68526;44.600;26.032;2023-12-14T00:21:01;42.72;;;28.77;;
79122;SDS011;68526;44.600;26.032;2023-12-14T00:21:17;44.10;;;28.58;;
79122;SDS011;68526;44.600;26.032;2023-12-14T00:21:33;44.65;;;29.00;;
79122;SDS011;68526;44.600;26.032;2023-12-14T00:21:49;45.40;;;28.88;;
79122;SDS011;68526;44.600;26.032;2023-12-14T00:22:05;42.75;;;27.95;;
79122;SDS011;68526;44.600;26.032;2023-12-14T00:22:22;42.00;;;28.73;;
79122;SDS011;68526;44.600;26.032;2023-12-14T00:22:37;42.13;;;28.95;;
79122;SDS011;68526;44.600;26.032;2023-12-14T00:22:53;40.00;;;27.53;;
79122;SDS011;68526;44.600;26.032;2023-12-14T00:23:09;40.97;;;27.38;;
79122;SDS011;68526;44.600;26.032;2023-12-14T00:23:25;41.63;;;28.15;;
79122;SDS011;68526;44.600;26.032;2023-12-14T00:23:42;40.00;;;27.70;;
79122;SDS011;68526;44.600;26.032;2023-12-14T00:23:58;42.83;;;28.57;;
79122;SDS011;68526;44.600;26.032;2023-12-14T00:24:14;45.17;;;29.38;;
79122;SDS011;68526;44.600;26.032;2023-12-14T00:24:30;44.53;;;29.17;;
79122;SDS011;68526;44.600;26.032;2023-12-14T00:24:46;44.55;;;29.15;;
79122;SDS011;68526;44.600;26.032;2023-12-14T00:25:02;43.25;;;28.40;;
79122;SDS011;68526;44.600;26.032;2023-12-14T00:25:19;42.55;;;27.98;;
79122;SDS011;68526;44.600;26.032;2023-12-14T00:25:34;47.45;;;29.13;;
79122;SDS011;68526;44.600;26.032;2023-12-14T00:25:51;46.33;;;29.27;;
79122;SDS011;68526;44.600;26.032;2023-12-14T00:26:07;44.35;;;28.90;;
79122;SDS011;68526;44.600;26.032;2023-12-14T00:26:23;45.22;;;29.40;;
79122;SDS011;68526;44.600;26.032;2023-12-14T00:26:39;45.23;;;29.50;;
79122;SDS011;68526;44.600;26.032;2023-12-14T00:26:55;44.25;;;28.95;;
79122;SDS011;68526;44.600;26.032;2023-12-14T00:27:11;42.42;;;28.42;;
79122;SDS011;68526;44.600;26.032;2023-12-14T00:27:27;41.90;;;28.85;;
79122;SDS011;68526;44.600;26.032;2023-12-14T00:27:43;41.53;;;29.20;;
79122;SDS011;68526;44.600;26.032;2023-12-14T00:28:00;42.28;;;28.33;;
79122;SDS011;68526;44.600;26.032;2023-12-14T00:28:17;43.38;;;28.55;;
79122;SDS011;68526;44.600;26.032;2023-12-14T00:28:33;42.88;;;29.30;;
79122;SDS011;68526;44.600;26.032;2023-12-14T00:28:49;42.53;;;28.97;;
79122;SDS011;68526;44.600;26.032;2023-12-14T00:29:05;43.95;;;28.92;;
79122;SDS011;68526;44.600;26.032;2023-12-14T00:29:21;43.63;;;28.77;;
79122;SDS011;68526;44.600;26.032;2023-12-14T00:29:37;42.30;;;28.15;;
79122;SDS011;68526;44.600;26.032;2023-12-14T00:29:53;42.83;;;27.60;;
79122;SDS011;68526;44.600;26.032;2023-12-14T00:30:10;42.80;;;27.30;;
79122;SDS011;68526;44.600;26.032;2023-12-14T00:30:26;44.05;;;28.25;;
79122;SDS011;68526;44.600;26.032;2023-12-14T00:30:42;45.72;;;29.05;;
79122;SDS011;68526;44.600;26.032;2023-12-14T00:30:58;44.78;;;28.65;;
79122;SDS011;68526;44.600;26.032;2023-12-14T00:31:14;43.45;;;28.63;;
79122;SDS011;68526;44.600;26.032;2023-12-14T00:31:32;42.03;;;28.63;;
79122;SDS011;68526;44.600;26.032;2023-12-14T00:31:48;42.97;;;28.20;;
79122;SDS011;68526;44.600;26.032;2023-12-14T00:32:04;42.40;;;27.55;;
79122;SDS011;68526;44.600;26.032;2023-12-14T00:32:21;42.67;;;28.17;;
79122;SDS011;68526;44.600;26.032;2023-12-14T00:32:36;43.17;;;28.13;;
79122;SDS011;68526;44.600;26.032;2023-12-14T00:32:52;44.33;;;28.48;;
79122;SDS011;68526;44.600;26.032;2023-12-14T00:33:08;43.88;;;28.83;;
79122;SDS011;68526;44.600;26.032;2023-12-14T00:33:24;42.80;;;28.63;;
79122;SDS011;68526;44.600;26.032;2023-12-14T00:33:41;41.75;;;27.42;;
79122;SDS011;68526;44.600;26.032;2023-12-14T00:33:57;40.93;;;27.40;;
79122;SDS011;68526;44.600;26.032;2023-12-14T00:34:13;40.97;;;27.63;;
79122;SDS011;68526;44.600;26.032;2023-12-14T00:34:29;41.33;;;27.27;;
79122;SDS011;68526;44.600;26.032;2023-12-14T00:34:45;41.97;;;28.13;;
79122;SDS011;68526;44.600;26.032;2023-12-14T00:35:00;42.83;;;27.85;;
79122;SDS011;68526;44.600;26.032;2023-12-14T00:35:17;45.70;;;27.40;;
79122;SDS011;68526;44.600;26.032;2023-12-14T00:35:33;44.38;;;27.70;;
79122;SDS011;68526;44.600;26.032;2023-12-14T00:35:49;42.97;;;27.90;;
79122;SDS011;68526;44.600;26.032;2023-12-14T00:36:06;41.42;;;27.48;;
79122;SDS011;68526;44.600;26.032;2023-12-14T00:36:22;40.38;;;26.88;;
79122;SDS011;68526;44.600;26.032;2023-12-14T00:36:38;41.30;;;26.55;;
79122;SDS011;68526;44.600;26.032;2023-12-14T00:36:54;40.08;;;27.00;;
79122;SDS011;68526;44.600;26.032;2023-12-14T00:37:11;39.47;;;27.27;;
79122;SDS011;68526;44.600;26.032;2023-12-14T00:37:27;41.38;;;28.00;;
79122;SDS011;68526;44.600;26.032;2023-12-14T00:37:43;40.08;;;27.75;;
79122;SDS011;68526;44.600;26.032;2023-12-14T00:37:59;39.10;;;26.83;;
79122;SDS011;68526;44.600;26.032;2023-12-14T00:38:15;40.00;;;26.63;;
79122;SDS011;68526;44.600;26.032;2023-12-14T00:38:31;40.42;;;26.77;;
79122;SDS011;68526;44.600;26.032;2023-12-14T00:38:47;42.33;;;28.38;;
79122;SDS011;68526;44.600;26.032;2023-12-14T00:39:03;42.92;;;28.33;;
79122;SDS011;68526;44.600;26.032;2023-12-14T00:39:20;41.65;;;27.13;;
79122;SDS011;68526;44.600;26.032;2023-12-14T00:39:36;42.15;;;27.13;;
79122;SDS011;68526;44.600;26.032;2023-12-14T00:39:52;40.63;;;27.50;;
79122;SDS011;68526;44.600;26.032;2023-12-14T00:40:10;39.92;;;28.15;;
79122;SDS011;68526;44.600;26.032;2023-12-14T00:40:26;40.40;;;27.27;;
79122;SDS011;68526;44.600;26.032;2023-12-14T00:40:43;42.08;;;27.52;;
79122;SDS011;68526;44.600;26.032;2023-12-14T00:40:59;41.15;;;27.33;;
79122;SDS011;68526;44.600;26.032;2023-12-14T00:41:15;41.75;;;27.55;;
79122;SDS011;68526;44.600;26.032;2023-12-14T00:41:31;42.38;;;27.98;;
79122;SDS011;68526;44.600;26.032;2023-12-14T00:41:48;39.90;;;26.52;;
79122;SDS011;68526;44.600;26.032;2023-12-14T00:42:04;40.28;;;26.42;;
79122;SDS011;68526;44.600;26.032;2023-12-14T00:42:20;41.50;;;27.15;;
79122;SDS011;68526;44.600;26.032;2023-12-14T00:42:36;40.27;;;27.10;;
79122;SDS011;68526;44.600;26.032;2023-12-14T00:42:53;39.90;;;27.30;;
79122;SDS011;68526;44.600;26.032;2023-12-14T00:43:09;41.38;;;27.98;;
79122;SDS011;68526;44.600;26.032;2023-12-14T00:43:26;43.00;;;28.38;;
79122;SDS011;68526;44.600;26.032;2023-12-14T00:43:42;42.88;;;28.63;;
79122;SDS011;68526;44.600;26.032;2023-12-14T00:43:58;42.00;;;27.75;;
79122;SDS011;68526;44.600;26.032;2023-12-14T00:44:14;42.65;;;28.08;;
79122;SDS011;68526;44.600;26.032;2023-12-14T00:44:30;42.20;;;28.10;;
79122;SDS011;68526;44.600;26.032;2023-12-14T00:44:46;41.47;;;27.38;;
79122;SDS011;68526;44.600;26.032;2023-12-14T00:45:03;41.53;;;26.93;;
79122;SDS011;68526;44.600;26.032;2023-12-14T00:45:19;41.33;;;26.90;;
79122;SDS011;68526;44.600;26.032;2023-12-14T00:45:35;42.35;;;27.27;;
79122;SDS011;68526;44.600;26.032;2023-12-14T00:45:51;41.30;;;26.83;;
79122;SDS011;68526;44.600;26.032;2023-12-14T00:46:07;41.47;;;27.00;;
79122;SDS011;68526;44.600;26.032;2023-12-14T00:46:25;40.17;;;26.08;;
79122;SDS011;68526;44.600;26.032;2023-12-14T00:46:40;40.53;;;25.80;;
79122;SDS011;68526;44.600;26.032;2023-12-14T00:46:56;40.47;;;26.80;;
79122;SDS011;68526;44.600;26.032;2023-12-14T00:47:13;40.35;;;27.65;;
79122;SDS011;68526;44.600;26.032;2023-12-14T00:47:29;43.47;;;27.55;;
79122;SDS011;68526;44.600;26.032;2023-12-14T00:47:45;43.13;;;27.25;;
79122;SDS011;68526;44.600;26.032;2023-12-14T00:48:01;41.27;;;27.37;;
79122;SDS011;68526;44.600;26.032;2023-12-14T00:48:17;43.38;;;28.27;;
79122;SDS011;68526;44.600;26.032;2023-12-14T00:48:34;41.80;;;27.85;;
79122;SDS011;68526;44.600;26.032;2023-12-14T00:48:50;39.63;;;26.48;;
79122;SDS011;68526;44.600;26.032;2023-12-14T00:49:06;39.97;;;25.60;;
79122;SDS011;68526;44.600;26.032;2023-12-14T00:49:22;42.83;;;26.55;;
79122;SDS011;68526;44.600;26.032;2023-12-14T00:49:38;40.92;;;26.45;;
79122;SDS011;68526;44.600;26.032;2023-12-14T00:49:53;40.50;;;26.37;;
79122;SDS011;68526;44.600;26.032;2023-12-14T00:50:09;39.85;;;26.85;;
79122;SDS011;68526;44.600;26.032;2023-12-14T00:50:26;42.20;;;27.65;;
79122;SDS011;68526;44.600;26.032;2023-12-14T00:50:42;42.40;;;27.50;;
79122;SDS011;68526;44.600;26.032;2023-12-14T00:50:58;40.83;;;26.95;;
79122;SDS011;68526;44.600;26.032;2023-12-14T00:51:14;38.97;;;26.15;;
79122;SDS011;68526;44.600;26.032;2023-12-14T00:51:30;38.15;;;26.23;;
79122;SDS011;68526;44.600;26.032;2023-12-14T00:51:46;39.53;;;26.97;;
79122;SDS011;68526;44.600;26.032;2023-12-14T00:52:03;39.20;;;26.17;;
79122;SDS011;68526;44.600;26.032;2023-12-14T00:52:20;39.17;;;26.00;;
79122;SDS011;68526;44.600;26.032;2023-12-14T00:52:36;38.50;;;26.33;;
79122;SDS011;68526;44.600;26.032;2023-12-14T00:52:52;39.73;;;26.83;;
79122;SDS011;68526;44.600;26.032;2023-12-14T00:53:08;41.22;;;26.95;;
79122;SDS011;68526;44.600;26.032;2023-12-14T00:53:24;40.28;;;26.35;;
79122;SDS011;68526;44.600;26.032;2023-12-14T00:53:40;41.13;;;27.08;;
79122;SDS011;68526;44.600;26.032;2023-12-14T00:53:57;43.00;;;28.15;;
79122;SDS011;68526;44.600;26.032;2023-12-14T00:54:13;43.78;;;29.00;;
79122;SDS011;68526;44.600;26.032;2023-12-14T00:54:29;43.42;;;28.42;;
79122;SDS011;68526;44.600;26.032;2023-12-14T00:54:44;43.37;;;28.47;;
79122;SDS011;68526;44.600;26.032;2023-12-14T00:55:00;45.38;;;29.13;;
79122;SDS011;68526;44.600;26.032;2023-12-14T00:55:16;46.60;;;29.50;;
79122;SDS011;68526;44.600;26.032;2023-12-14T00:55:32;45.00;;;29.08;;
79122;SDS011;68526;44.600;26.032;2023-12-14T00:55:49;46.20;;;29.92;;
79122;SDS011;68526;44.600;26.032;2023-12-14T00:56:07;48.53;;;31.27;;
79122;SDS011;68526;44.600;26.032;2023-12-14T00:56:23;47.10;;;30.63;;
79122;SDS011;68526;44.600;26.032;2023-12-14T00:56:39;48.20;;;29.92;;
79122;SDS011;68526;44.600;26.032;2023-12-14T00:56:55;48.73;;;30.83;;
79122;SDS011;68526;44.600;26.032;2023-12-14T00:57:11;50.40;;;31.77;;
79122;SDS011;68526;44.600;26.032;2023-12-14T00:57:28;49.22;;;31.10;;
79122;SDS011;68526;44.600;26.032;2023-12-14T00:57:44;49.08;;;32.10;;
79122;SDS011;68526;44.600;26.032;2023-12-14T00:57:59;49.53;;;32.58;;
79122;SDS011;68526;44.600;26.032;2023-12-14T00:58:15;46.88;;;31.50;;
79122;SDS011;68526;44.600;26.032;2023-12-14T00:58:33;44.37;;;30.60;;
79122;SDS011;68526;44.600;26.032;2023-12-14T00:58:49;45.00;;;29.77;;
79122;SDS011;68526;44.600;26.032;2023-12-14T00:59:05;45.63;;;29.60;;
79122;SDS011;68526;44.600;26.032;2023-12-14T00:59:22;46.28;;;29.90;;
79122;SDS011;68526;44.600;26.032;2023-12-14T00:59:37;46.85;;;29.90;;
79122;SDS011;68526;44.600;26.032;2023-12-14T00:59:53;45.58;;;30.60;;
79122;SDS011;68526;44.600;26.032;2023-12-14T01:00:10;45.83;;;30.48;;
79122;SDS011;68526;44.600;26.032;2023-12-14T01:00:26;46.17;;;29.77;;
79122;SDS011;68526;44.600;26.032;2023-12-14T01:00:42;46.20;;;30.55;;
79122;SDS011;68526;44.600;26.032;2023-12-14T01:00:59;46.38;;;30.58;;
79122;SDS011;68526;44.600;26.032;2023-12-14T01:01:15;44.78;;;29.55;;
79122;SDS011;68526;44.600;26.032;2023-12-14T01:01:31;45.57;;;30.13;;
79122;SDS011;68526;44.600;26.032;2023-12-14T01:01:47;44.75;;;29.33;;
79122;SDS011;68526;44.600;26.032;2023-12-14T01:02:03;44.08;;;29.35;;
79122;SDS011;68526;44.600;26.032;2023-12-14T01:02:19;45.70;;;30.92;;
79122;SDS011;68526;44.600;26.032;2023-12-14T01:02:37;50.15;;;31.75;;
79122;SDS011;68526;44.600;26.032;2023-12-14T01:02:53;51.58;;;33.22;;
79122;SDS011;68526;44.600;26.032;2023-12-14T01:03:08;51.77;;;33.33;;
79122;SDS011;68526;44.600;26.032;2023-12-14T01:03:24;54.58;;;33.90;;
79122;SDS011;68526;44.600;26.032;2023-12-14T01:03:40;54.92;;;34.92;;
79122;SDS011;68526;44.600;26.032;2023-12-14T01:03:56;55.15;;;36.00;;
79122;SDS011;68526;44.600;26.032;2023-12-14T01:04:12;56.78;;;36.88;;
79122;SDS011;68526;44.600;26.032;2023-12-14T01:04:29;59.10;;;36.42;;
79122;SDS011;68526;44.600;26.032;2023-12-14T01:04:45;58.57;;;36.10;;
79122;SDS011;68526;44.600;26.032;2023-12-14T01:05:01;56.92;;;36.13;;
79122;SDS011;68526;44.600;26.032;2023-12-14T01:05:17;55.08;;;35.25;;
79122;SDS011;68526;44.600;26.032;2023-12-14T01:05:33;55.55;;;35.28;;
79122;SDS011;68526;44.600;26.032;2023-12-14T01:05:48;57.65;;;36.17;;
79122;SDS011;68526;44.600;26.032;2023-12-14T01:06:04;55.80;;;36.30;;
79122;SDS011;68526;44.600;26.032;2023-12-14T01:06:22;56.08;;;36.15;;
79122;SDS011;68526;44.600;26.032;2023-12-14T01:06:39;55.33;;;35.67;;
79122;SDS011;68526;44.600;26.032;2023-12-14T01:06:54;57.22;;;36.90;;
79122;SDS011;68526;44.600;26.032;2023-12-14T01:07:10;54.97;;;36.03;;
79122;SDS011;68526;44.600;26.032;2023-12-14T01:07:26;53.95;;;35.35;;
79122;SDS011;68526;44.600;26.032;2023-12-14T01:07:42;55.42;;;35.30;;
79122;SDS011;68526;44.600;26.032;2023-12-14T01:08:01;57.75;;;36.22;;
79122;SDS011;68526;44.600;26.032;2023-12-14T01:08:18;57.38;;;36.35;;
79122;SDS011;68526;44.600;26.032;2023-12-14T01:08:34;56.92;;;36.75;;
79122;SDS011;68526;44.600;26.032;2023-12-14T01:08:50;57.13;;;37.17;;
79122;SDS011;68526;44.600;26.032;2023-12-14T01:09:05;56.95;;;36.53;;
79122;SDS011;68526;44.600;26.032;2023-12-14T01:09:21;57.33;;;36.47;;
79122;SDS011;68526;44.600;26.032;2023-12-14T01:09:37;58.40;;;37.13;;
79122;SDS011;68526;44.600;26.032;2023-12-14T01:09:54;59.40;;;36.75;;
79122;SDS011;68526;44.600;26.032;2023-12-14T01:10:10;59.63;;;37.20;;
79122;SDS011;68526;44.600;26.032;2023-12-14T01:10:26;58.65;;;37.45;;
79122;SDS011;68526;44.600;26.032;2023-12-14T01:10:42;58.05;;;36.97;;
79122;SDS011;68526;44.600;26.032;2023-12-14T01:10:58;56.22;;;35.65;;
79122;SDS011;68526;44.600;26.032;2023-12-14T01:11:14;52.95;;;34.63;;
79122;SDS011;68526;44.600;26.032;2023-12-14T01:11:30;50.60;;;33.42;;
79122;SDS011;68526;44.600;26.032;2023-12-14T01:11:46;49.80;;;32.83;;
79122;SDS011;68526;44.600;26.032;2023-12-14T01:12:03;54.53;;;33.85;;
79122;SDS011;68526;44.600;26.032;2023-12-14T01:12:19;55.92;;;34.83;;
79122;SDS011;68526;44.600;26.032;2023-12-14T01:12:35;55.67;;;35.53;;
79122;SDS011;68526;44.600;26.032;2023-12-14T01:12:51;53.72;;;34.28;;
79122;SDS011;68526;44.600;26.032;2023-12-14T01:13:07;54.30;;;34.07;;
79122;SDS011;68526;44.600;26.032;2023-12-14T01:13:23;55.28;;;35.15;;
79122;SDS011;68526;44.600;26.032;2023-12-14T01:13:40;52.17;;;34.03;;
79122;SDS011;68526;44.600;26.032;2023-12-14T01:13:56;52.42;;;34.05;;
79122;SDS011;68526;44.600;26.032;2023-12-14T01:14:13;52.90;;;34.35;;
79122;SDS011;68526;44.600;26.032;2023-12-14T01:14:29;54.88;;;35.60;;
79122;SDS011;68526;44.600;26.032;2023-12-14T01:14:45;54.90;;;35.08;;
79122;SDS011;68526;44.600;26.032;2023-12-14T01:15:01;51.50;;;33.10;;
79122;SDS011;68526;44.600;26.032;2023-12-14T01:15:17;48.47;;;32.85;;
79122;SDS011;68526;44.600;26.032;2023-12-14T01:15:33;49.40;;;32.42;;
79122;SDS011;68526;44.600;26.032;2023-12-14T01:15:49;49.75;;;31.73;;
79122;SDS011;68526;44.600;26.032;2023-12-14T01:16:06;48.72;;;31.92;;
79122;SDS011;68526;44.600;26.032;2023-12-14T01:16:25;50.58;;;32.67;;
79122;SDS011;68526;44.600;26.032;2023-12-14T01:16:41;48.60;;;31.98;;
79122;SDS011;68526;44.600;26.032;2023-12-14T01:16:57;46.90;;;31.58;;
79122;SDS011;68526;44.600;26.032;2023-12-14T01:17:13;48.25;;;32.15;;
79122;SDS011;68526;44.600;26.032;2023-12-14T01:17:29;49.35;;;31.52;;
79122;SDS011;68526;44.600;26.032;2023-12-14T01:17:45;50.65;;;32.00;;
79122;SDS011;68526;44.600;26.032;2023-12-14T01:18:02;52.50;;;33.53;;
79122;SDS011;68526;44.600;26.032;2023-12-14T01:18:18;51.50;;;33.70;;
79122;SDS011;68526;44.600;26.032;2023-12-14T01:18:34;49.43;;;33.20;;
79122;SDS011;68526;44.600;26.032;2023-12-14T01:18:50;48.65;;;32.97;;
79122;SDS011;68526;44.600;26.032;2023-12-14T01:19:06;51.30;;;33.58;;
79122;SDS011;68526;44.600;26.032;2023-12-14T01:19:22;50.65;;;33.28;;
79122;SDS011;68526;44.600;26.032;2023-12-14T01:19:40;50.25;;;33.72;;
79122;SDS011;68526;44.600;26.032;2023-12-14T01:19:56;50.60;;;33.72;;
79122;SDS011;68526;44.600;26.032;2023-12-14T01:20:12;49.47;;;32.80;;
79122;SDS011;68526;44.600;26.032;2023-12-14T01:20:28;50.72;;;32.40;;
79122;SDS011;68526;44.600;26.032;2023-12-14T01:20:44;52.85;;;32.70;;
79122;SDS011;68526;44.600;26.032;2023-12-14T01:21:00;51.55;;;32.72;;
79122;SDS011;68526;44.600;26.032;2023-12-14T01:21:16;52.25;;;33.00;;
79122;SDS011;68526;44.600;26.032;2023-12-14T01:21:33;50.15;;;32.33;;
79122;SDS011;68526;44.600;26.032;2023-12-14T01:21:49;51.13;;;33.15;;
79122;SDS011;68526;44.600;26.032;2023-12-14T01:22:05;53.28;;;34.05;;
79122;SDS011;68526;44.600;26.032;2023-12-14T01:22:21;50.07;;;32.10;;
79122;SDS011;68526;44.600;26.032;2023-12-14T01:22:36;49.67;;;31.98;;
79122;SDS011;68526;44.600;26.032;2023-12-14T01:22:52;48.17;;;32.10;;
79122;SDS011;68526;44.600;26.032;2023-12-14T01:23:08;48.05;;;32.80;;
79122;SDS011;68526;44.600;26.032;2023-12-14T01:23:24;49.65;;;33.83;;
79122;SDS011;68526;44.600;26.032;2023-12-14T01:23:41;51.22;;;34.22;;
79122;SDS011;68526;44.600;26.032;2023-12-14T01:23:57;52.55;;;33.55;;
79122;SDS011;68526;44.600;26.032;2023-12-14T01:24:13;54.30;;;33.38;;
79122;SDS011;68526;44.600;26.032;2023-12-14T01:24:29;51.10;;;32.45;;
79122;SDS011;68526;44.600;26.032;2023-12-14T01:24:45;50.00;;;31.57;;
79122;SDS011;68526;44.600;26.032;2023-12-14T01:25:01;51.70;;;32.42;;
79122;SDS011;68526;44.600;26.032;2023-12-14T01:25:17;49.92;;;32.92;;
79122;SDS011;68526;44.600;26.032;2023-12-14T01:25:33;50.50;;;32.78;;
79122;SDS011;68526;44.600;26.032;2023-12-14T01:25:50;52.28;;;32.88;;
79122;SDS011;68526;44.600;26.032;2023-12-14T01:26:06;51.00;;;32.17;;
79122;SDS011;68526;44.600;26.032;2023-12-14T01:26:22;48.47;;;31.33;;
79122;SDS011;68526;44.600;26.032;2023-12-14T01:26:37;50.10;;;31.17;;
79122;SDS011;68526;44.600;26.032;2023-12-14T01:26:53;50.97;;;31.60;;
79122;SDS011;68526;44.600;26.032;2023-12-14T01:27:09;50.67;;;32.70;;
79122;SDS011;68526;44.600;26.032;2023-12-14T01:27:28;50.33;;;32.20;;
79122;SDS011;68526;44.600;26.032;2023-12-14T01:27:44;47.25;;;30.92;;
79122;SDS011;68526;44.600;26.032;2023-12-14T01:28:00;49.92;;;32.00;;
79122;SDS011;68526;44.600;26.032;2023-12-14T01:28:16;51.15;;;32.75;;
79122;SDS011;68526;44.600;26.032;2023-12-14T01:28:32;50.13;;;31.48;;
79122;SDS011;68526;44.600;26.032;2023-12-14T01:28:50;49.25;;;30.58;;
79122;SDS011;68526;44.600;26.032;2023-12-14T01:29:06;50.00;;;31.38;;
79122;SDS011;68526;44.600;26.032;2023-12-14T01:29:23;52.00;;;32.60;;
79122;SDS011;68526;44.600;26.032;2023-12-14T01:29:38;49.55;;;31.63;;
79122;SDS011;68526;44.600;26.032;2023-12-14T01:29:54;50.50;;;31.37;;
79122;SDS011;68526;44.600;26.032;2023-12-14T01:30:11;52.20;;;32.67;;
79122;SDS011;68526;44.600;26.032;2023-12-14T01:30:27;52.08;;;33.30;;
79122;SDS011;68526;44.600;26.032;2023-12-14T01:30:43;51.40;;;32.97;;
79122;SDS011;68526;44.600;26.032;2023-12-14T01:30:59;50.75;;;32.75;;
79122;SDS011;68526;44.600;26.032;2023-12-14T01:31:16;51.47;;;32.58;;
79122;SDS011;68526;44.600;26.032;2023-12-14T01:31:32;49.67;;;31.87;;
79122;SDS011;68526;44.600;26.032;2023-12-14T01:31:48;50.15;;;31.80;;
79122;SDS011;68526;44.600;26.032;2023-12-14T01:32:04;50.05;;;31.67;;
79122;SDS011;68526;44.600;26.032;2023-12-14T01:32:20;50.10;;;31.85;;
79122;SDS011;68526;44.600;26.032;2023-12-14T01:32:36;51.83;;;32.25;;
79122;SDS011;68526;44.600;26.032;2023-12-14T01:32:52;53.40;;;32.17;;
79122;SDS011;68526;44.600;26.032;2023-12-14T01:33:08;52.35;;;32.17;;
79122;SDS011;68526;44.600;26.032;2023-12-14T01:33:24;53.40;;;33.77;;